createdAt,value
2019-04-14T00:00:18.410Z,99.90
2019-04-14T00:03:00.886Z,99.90
2019-04-14T00:05:31.515Z,99.90
2019-04-14T00:08:00.313Z,99.90
2019-04-14T00:10:29.050Z,99.90
2019-04-14T00:12:57.782Z,99.90
2019-04-14T00:15:32.950Z,99.90
2019-04-14T00:17:56.964Z,99.90
2019-04-14T00:20:25.799Z,99.90
2019-04-14T00:22:55.481Z,99.90
2019-04-14T00:25:24.481Z,99.90
2019-04-14T00:27:54.254Z,99.90
2019-04-14T00:30:25.178Z,99.90
2019-04-14T00:32:55.775Z,99.90
2019-04-14T00:35:32.110Z,99.90
2019-04-14T00:38:19.511Z,99.90
2019-04-14T00:40:53.908Z,99.90
2019-04-14T00:43:33.119Z,99.90
2019-04-14T00:46:19.527Z,99.90
2019-04-14T00:48:49.738Z,99.90
2019-04-14T00:51:18.426Z,99.90
2019-04-14T00:53:47.373Z,99.90
2019-04-14T00:56:17.116Z,99.90
2019-04-14T00:58:45.784Z,99.90
2019-04-14T01:01:15.449Z,99.90
2019-04-14T01:03:44.012Z,99.90
2019-04-14T01:06:12.500Z,99.90
2019-04-14T01:08:41.042Z,99.90
2019-04-14T01:11:09.980Z,99.90
2019-04-14T01:13:39.652Z,99.90
2019-04-14T01:16:13.918Z,99.90
2019-04-14T01:18:38.966Z,99.90
2019-04-14T01:21:08.895Z,99.90
2019-04-14T01:23:39.082Z,99.90
2019-04-14T01:26:07.797Z,99.90
2019-04-14T01:28:37.546Z,99.90
2019-04-14T01:31:07.561Z,99.90
2019-04-14T01:33:36.178Z,99.90
2019-04-14T01:36:05.950Z,99.90
2019-04-14T01:38:34.942Z,99.90
2019-04-14T01:41:04.250Z,99.90
2019-04-14T01:43:34.124Z,99.90
2019-04-14T01:46:13.484Z,99.90
2019-04-14T01:48:33.199Z,99.90
2019-04-14T01:51:07.071Z,99.90
2019-04-14T01:53:37.927Z,99.90
2019-04-14T01:56:22.933Z,99.90
2019-04-14T01:58:53.297Z,99.90
2019-04-14T02:01:26.456Z,99.90
2019-04-14T02:03:56.228Z,99.90
2019-04-14T02:06:25.175Z,99.90
2019-04-14T02:08:54.683Z,99.90
2019-04-14T02:11:23.264Z,99.90
2019-04-14T02:13:52.905Z,99.90
2019-04-14T02:16:30.942Z,99.90
2019-04-14T02:18:55.243Z,99.90
2019-04-14T02:21:23.808Z,99.90
2019-04-14T02:23:52.347Z,99.90
2019-04-14T02:26:24.123Z,99.90
2019-04-14T02:28:52.973Z,99.90
2019-04-14T02:31:46.787Z,99.90
2019-04-14T02:34:26.038Z,99.90
2019-04-14T02:36:52.409Z,99.90
2019-04-14T02:39:24.789Z,99.90
2019-04-14T02:41:59.924Z,99.90
2019-04-14T02:44:24.121Z,99.90
2019-04-14T02:46:57.860Z,99.90
2019-04-14T02:49:18.716Z,99.90
2019-04-14T02:51:50.233Z,99.90
2019-04-14T02:54:23.383Z,99.90
2019-04-14T02:56:58.443Z,99.90
2019-04-14T02:59:22.837Z,99.90
2019-04-14T03:02:09.311Z,99.90
2019-04-14T03:04:19.528Z,99.90
2019-04-14T03:06:54.773Z,99.90
2019-04-14T03:09:28.928Z,99.90
2019-04-14T03:11:51.256Z,99.90
2019-04-14T03:14:23.316Z,99.90
2019-04-14T03:20:05.480Z,99.90
2019-04-14T03:22:37.028Z,99.90
2019-04-14T03:25:08.176Z,99.90
2019-04-14T03:28:22.901Z,99.90
2019-04-14T03:40:44.616Z,99.90
2019-04-14T03:43:13.237Z,99.90
2019-04-14T03:48:34.655Z,99.90
2019-04-14T03:50:37.877Z,99.90
2019-04-14T03:55:39.431Z,99.90
2019-04-14T03:58:00.611Z,99.90
2019-04-14T04:00:29.253Z,99.90
2019-04-14T04:02:57.752Z,99.90
2019-04-14T04:05:26.656Z,99.90
2019-04-14T04:07:56.035Z,99.90
2019-04-14T04:10:24.750Z,99.90
2019-04-14T04:12:53.631Z,99.90
2019-04-14T04:15:23.536Z,99.90
2019-04-14T04:17:53.840Z,99.90
2019-04-14T04:20:24.098Z,99.90
2019-04-14T04:22:58.502Z,99.90
2019-04-14T04:25:29.126Z,99.90
2019-04-14T04:28:06.020Z,99.90
2019-04-14T04:30:36.622Z,99.90
2019-04-14T04:33:24.117Z,99.90
2019-04-14T04:36:01.036Z,99.90
2019-04-14T04:38:31.584Z,99.90
2019-04-14T04:41:00.136Z,99.90
2019-04-14T04:43:29.765Z,99.90
2019-04-14T04:45:58.673Z,99.90
2019-04-14T04:48:28.457Z,99.90
2019-04-14T04:50:57.113Z,99.90
2019-04-14T04:53:26.674Z,99.90
2019-04-14T04:55:55.301Z,99.90
2019-04-14T04:58:24.189Z,99.90
2019-04-14T05:00:54.358Z,99.90
2019-04-14T05:03:23.400Z,99.90
2019-04-14T05:06:28.805Z,99.90
2019-04-14T05:08:59.175Z,99.90
2019-04-14T05:11:29.731Z,99.90
2019-04-14T05:14:00.084Z,99.90
2019-04-14T05:16:28.693Z,99.90
2019-04-14T05:19:11.419Z,99.90
2019-04-14T05:21:27.763Z,99.90
2019-04-14T05:23:56.577Z,99.90
2019-04-14T05:26:25.074Z,99.90
2019-04-14T05:28:54.786Z,99.90
2019-04-14T05:31:26.257Z,99.90
2019-04-14T05:33:54.008Z,99.90
2019-04-14T05:36:25.994Z,99.90
2019-04-14T05:38:54.569Z,99.90
2019-04-14T05:41:24.330Z,99.90
2019-04-14T05:43:57.127Z,99.90
2019-04-14T05:46:23.557Z,99.90
2019-04-14T05:48:52.046Z,99.90
2019-04-14T05:51:22.128Z,99.90
2019-04-14T05:53:52.273Z,99.90
2019-04-14T05:56:21.322Z,99.90
2019-04-14T05:58:51.418Z,99.90
2019-04-14T06:01:20.329Z,99.90
2019-04-14T06:03:49.647Z,99.90
2019-04-14T06:06:18.294Z,99.90
2019-04-14T06:08:46.805Z,99.90
2019-04-14T06:11:15.315Z,99.90
2019-04-14T06:13:43.890Z,99.90
2019-04-14T06:16:12.448Z,99.90
2019-04-14T06:18:41.253Z,99.90
2019-04-14T06:21:09.819Z,99.90
2019-04-14T06:23:38.379Z,99.90
2019-04-14T06:26:06.845Z,99.90
2019-04-14T06:28:35.738Z,99.90
2019-04-14T06:31:22.347Z,99.90
2019-04-14T06:33:52.854Z,99.90
2019-04-14T06:36:37.988Z,99.90
2019-04-14T06:39:15.247Z,99.90
2019-04-14T06:41:44.154Z,99.90
2019-04-14T06:44:12.995Z,99.90
2019-04-14T06:46:41.922Z,99.90
2019-04-14T06:49:10.503Z,99.90
2019-04-14T06:51:39.333Z,99.90
2019-04-14T06:54:07.929Z,99.90
2019-04-14T06:56:36.477Z,99.90
2019-04-14T06:59:05.090Z,99.90
2019-04-14T07:01:33.602Z,99.90
2019-04-14T07:04:02.210Z,99.90
2019-04-14T07:06:30.830Z,99.90
2019-04-14T07:08:59.466Z,99.90
2019-04-14T07:11:28.315Z,99.90
2019-04-14T07:13:56.783Z,99.90
2019-04-14T07:16:25.630Z,99.90
2019-04-14T07:18:54.484Z,99.90
2019-04-14T07:21:23.074Z,99.90
2019-04-14T07:23:51.657Z,99.90
2019-04-14T07:26:21.749Z,99.90
2019-04-14T07:28:56.512Z,99.90
2019-04-14T07:31:38.754Z,99.90
2019-04-14T07:34:24.576Z,99.90
2019-04-14T07:37:03.537Z,99.90
2019-04-14T07:39:33.674Z,99.90
2019-04-14T07:42:03.878Z,99.90
2019-04-14T07:44:50.574Z,99.90
2019-04-14T07:47:29.916Z,99.90
2019-04-14T07:50:00.057Z,99.90
2019-04-14T07:52:36.303Z,99.90
2019-04-14T07:55:11.117Z,99.90
2019-04-14T07:57:57.555Z,99.70
2019-04-14T08:00:44.266Z,98.60
2019-04-14T08:03:14.443Z,98.30
2019-04-14T08:05:44.658Z,96.50
2019-04-14T08:08:13.458Z,95.80
2019-04-14T08:10:41.999Z,95.60
2019-04-14T08:13:10.886Z,95.50
2019-04-14T08:15:39.369Z,96.10
2019-04-14T08:18:07.911Z,96.40
2019-04-14T08:20:36.480Z,96.00
2019-04-14T08:23:05.072Z,94.80
2019-04-14T08:25:33.619Z,94.80
2019-04-14T08:28:02.467Z,93.90
2019-04-14T08:30:31.122Z,93.70
2019-04-14T08:33:00.017Z,93.80
2019-04-14T08:35:28.901Z,94.20
2019-04-14T08:37:57.403Z,94.00
2019-04-14T08:40:26.259Z,93.80
2019-04-14T08:43:02.671Z,94.60
2019-04-14T08:45:44.316Z,94.20
2019-04-14T08:48:17.206Z,94.70
2019-04-14T08:51:01.853Z,94.30
2019-04-14T08:53:47.482Z,95.10
2019-04-14T08:56:17.899Z,95.20
2019-04-14T08:58:48.320Z,95.10
2019-04-14T09:01:27.198Z,95.00
2019-04-14T09:04:03.075Z,95.10
2019-04-14T09:06:35.848Z,94.90
2019-04-14T09:09:18.975Z,94.80
2019-04-14T09:11:49.457Z,94.00
2019-04-14T09:14:18.341Z,94.30
2019-04-14T09:16:47.244Z,93.20
2019-04-14T09:19:15.745Z,93.20
2019-04-14T09:21:44.579Z,93.90
2019-04-14T09:24:13.368Z,93.70
2019-04-14T09:26:42.142Z,94.40
2019-04-14T09:29:10.621Z,94.00
2019-04-14T09:31:39.984Z,93.20
2019-04-14T09:34:08.826Z,94.10
2019-04-14T09:36:37.580Z,93.10
2019-04-14T09:39:07.396Z,94.10
2019-04-14T09:41:35.867Z,92.50
2019-04-14T09:44:04.484Z,93.50
2019-04-14T09:46:33.308Z,93.40
2019-04-14T09:49:02.279Z,92.50
2019-04-14T09:51:30.764Z,93.30
2019-04-14T09:53:59.443Z,92.10
2019-04-14T09:56:28.548Z,91.90
2019-04-14T09:58:57.291Z,92.40
2019-04-14T10:01:26.268Z,90.40
2019-04-14T10:03:54.742Z,91.50
2019-04-14T10:06:26.258Z,91.10
2019-04-14T10:08:55.135Z,90.30
2019-04-14T10:11:23.748Z,90.90
2019-04-14T10:13:52.460Z,91.40
2019-04-14T10:16:21.320Z,91.30
2019-04-14T10:18:49.961Z,91.00
2019-04-14T10:24:58.690Z,91.30
2019-04-14T10:27:27.229Z,90.10
2019-04-14T10:29:56.340Z,91.50
2019-04-14T10:32:24.883Z,87.80
2019-04-14T10:34:53.757Z,87.80
2019-04-14T10:37:22.515Z,89.80
2019-04-14T10:39:51.344Z,90.30
2019-04-14T10:42:20.201Z,89.80
2019-04-14T10:44:48.947Z,88.80
2019-04-14T10:47:17.694Z,90.10
2019-04-14T10:49:46.236Z,88.20
2019-04-14T10:52:15.150Z,89.70
2019-04-14T10:54:43.628Z,90.90
2019-04-14T10:57:12.487Z,88.70
2019-04-14T10:59:41.051Z,88.00
2019-04-14T11:02:09.510Z,88.90
2019-04-14T11:04:37.977Z,87.80
2019-04-14T11:07:10.896Z,86.90
2019-04-14T11:09:39.344Z,89.10
2019-04-14T11:12:08.137Z,89.50
2019-04-14T11:14:36.593Z,86.70
2019-04-14T11:17:05.024Z,88.80
2019-04-14T11:19:33.479Z,88.00
2019-04-14T11:22:02.228Z,89.00
2019-04-14T11:24:30.711Z,90.20
2019-04-14T11:26:59.151Z,88.90
2019-04-14T11:29:27.613Z,88.20
2019-04-14T11:32:06.169Z,88.10
2019-04-14T11:34:47.846Z,87.40
2019-04-14T11:37:20.659Z,89.10
2019-04-14T11:39:49.137Z,87.70
2019-04-14T11:42:17.567Z,85.10
2019-04-14T11:44:46.043Z,88.90
2019-04-14T11:47:16.250Z,88.70
2019-04-14T11:49:45.133Z,88.40
2019-04-14T11:52:13.873Z,88.20
2019-04-14T11:54:42.327Z,87.20
2019-04-14T11:57:10.763Z,85.80
2019-04-14T11:59:43.882Z,85.60
2019-04-14T12:02:16.779Z,87.90
2019-04-14T12:04:46.899Z,89.70
2019-04-14T12:07:19.933Z,88.70
2019-04-14T12:09:56.311Z,87.90
2019-04-14T12:12:25.064Z,84.40
2019-04-14T12:14:53.528Z,84.80
2019-04-14T12:17:22.268Z,82.80
2019-04-14T12:19:50.714Z,84.10
2019-04-14T12:22:19.160Z,84.80
2019-04-14T12:24:47.613Z,82.40
2019-04-14T12:27:16.046Z,84.80
2019-04-14T12:29:45.694Z,86.00
2019-04-14T12:32:15.084Z,85.40
2019-04-14T12:34:43.729Z,83.40
2019-04-14T12:37:12.227Z,87.10
2019-04-14T12:39:40.668Z,83.40
2019-04-14T12:42:11.078Z,84.40
2019-04-14T12:44:41.156Z,82.90
2019-04-14T12:47:28.839Z,85.10
2019-04-14T12:50:04.659Z,85.10
2019-04-14T12:52:33.456Z,85.50
2019-04-14T12:55:02.240Z,85.60
2019-04-14T12:57:47.670Z,85.80
2019-04-14T13:00:24.932Z,85.60
2019-04-14T13:02:54.179Z,85.90
2019-04-14T13:05:22.683Z,84.90
2019-04-14T13:07:51.171Z,86.80
2019-04-14T13:10:20.212Z,84.60
2019-04-14T13:12:48.826Z,84.90
2019-04-14T13:15:17.431Z,87.30
2019-04-14T13:17:46.018Z,86.90
2019-04-14T13:20:14.712Z,86.30
2019-04-14T13:22:43.173Z,89.30
2019-04-14T13:25:11.880Z,87.00
2019-04-14T13:27:40.459Z,85.30
2019-04-14T13:30:12.260Z,86.40
2019-04-14T13:32:40.863Z,87.80
2019-04-14T13:35:09.876Z,85.90
2019-04-14T13:37:38.556Z,85.40
2019-04-14T13:40:07.641Z,83.70
2019-04-14T13:42:36.500Z,84.60
2019-04-14T13:45:06.322Z,84.70
2019-04-14T13:47:35.302Z,87.10
2019-04-14T13:50:06.158Z,82.80
2019-04-14T13:52:46.126Z,83.50
2019-04-14T13:55:06.781Z,85.90
2019-04-14T13:57:35.410Z,85.90
2019-04-14T14:00:06.547Z,86.00
2019-04-14T14:02:35.123Z,85.30
2019-04-14T14:05:03.977Z,86.20
2019-04-14T14:07:32.571Z,86.40
2019-04-14T14:10:01.108Z,87.40
2019-04-14T14:12:34.580Z,87.00
2019-04-14T14:15:21.682Z,85.80
2019-04-14T14:17:51.887Z,87.30
2019-04-14T14:20:27.777Z,88.20
2019-04-14T14:23:13.169Z,89.10
2019-04-14T14:25:45.772Z,86.90
2019-04-14T14:28:14.268Z,87.90
2019-04-14T14:30:42.818Z,86.40
2019-04-14T14:33:11.378Z,86.10
2019-04-14T14:35:39.874Z,86.70
2019-04-14T14:38:08.424Z,85.80
2019-04-14T14:40:36.954Z,88.50
2019-04-14T14:43:05.615Z,90.00
2019-04-14T14:45:35.822Z,90.20
2019-04-14T14:48:18.239Z,88.40
2019-04-14T14:50:48.401Z,89.30
2019-04-14T14:53:17.281Z,89.00
2019-04-14T14:55:45.879Z,89.20
2019-04-14T14:58:14.807Z,90.10
2019-04-14T15:00:43.880Z,90.10
2019-04-14T15:03:12.556Z,87.00
2019-04-14T15:05:41.147Z,88.00
2019-04-14T15:08:09.749Z,88.20
2019-04-14T15:10:38.408Z,87.30
2019-04-14T15:13:07.083Z,86.10
2019-04-14T15:15:35.648Z,87.60
2019-04-14T15:18:04.498Z,87.30
2019-04-14T15:20:33.375Z,86.80
2019-04-14T15:23:02.475Z,88.40
2019-04-14T15:25:31.127Z,89.30
2019-04-14T15:27:59.670Z,87.20
2019-04-14T15:30:28.332Z,88.90
2019-04-14T15:32:57.178Z,89.70
2019-04-14T15:35:25.624Z,89.30
2019-04-14T15:37:54.127Z,89.50
2019-04-14T15:40:22.780Z,89.60
2019-04-14T15:42:51.352Z,87.70
2019-04-14T15:45:20.285Z,89.80
2019-04-14T15:47:48.851Z,90.30
2019-04-14T15:50:17.443Z,89.30
2019-04-14T15:52:46.033Z,89.30
2019-04-14T15:55:16.561Z,89.80
2019-04-14T15:57:46.762Z,90.00
2019-04-14T16:00:23.321Z,89.20
2019-04-14T16:02:56.288Z,88.20
2019-04-14T16:05:26.452Z,89.30
2019-04-14T16:07:56.995Z,90.90
2019-04-14T16:10:42.312Z,90.70
2019-04-14T16:13:12.574Z,90.10
2019-04-14T16:15:42.763Z,90.00
2019-04-14T16:18:16.353Z,90.40
2019-04-14T16:20:46.454Z,90.70
2019-04-14T16:23:14.995Z,90.60
2019-04-14T16:25:48.249Z,90.80
2019-04-14T16:28:21.242Z,90.70
2019-04-14T16:31:07.197Z,90.40
2019-04-14T16:33:53.779Z,90.30
2019-04-14T16:36:22.473Z,90.80
2019-04-14T16:38:51.492Z,90.90
2019-04-14T16:41:20.456Z,90.90
2019-04-14T16:43:49.474Z,91.10
2019-04-14T16:46:18.381Z,91.20
2019-04-14T16:48:47.373Z,91.50
2019-04-14T16:51:17.821Z,90.90
2019-04-14T16:53:47.732Z,91.20
2019-04-14T16:56:17.923Z,91.20
2019-04-14T16:58:51.053Z,91.30
2019-04-14T17:01:21.219Z,91.20
2019-04-14T17:03:49.858Z,91.50
2019-04-14T17:06:18.364Z,91.30
2019-04-14T17:08:47.366Z,91.20
2019-04-14T17:11:15.954Z,91.10
2019-04-14T17:13:46.207Z,91.00
2019-04-14T17:16:16.428Z,91.00
2019-04-14T17:18:55.693Z,90.90
2019-04-14T17:21:40.623Z,91.40
2019-04-14T17:24:16.703Z,91.10
2019-04-14T17:26:49.243Z,91.60
2019-04-14T17:29:19.592Z,91.50
2019-04-14T17:31:58.309Z,91.20
2019-04-14T17:34:34.380Z,91.90
2019-04-14T17:37:13.248Z,91.60
2019-04-14T17:39:43.762Z,91.60
2019-04-14T17:42:19.948Z,92.10
2019-04-14T17:44:50.463Z,91.70
2019-04-14T17:47:20.686Z,92.20
2019-04-14T17:49:53.652Z,92.20
2019-04-14T17:52:40.105Z,92.40
2019-04-14T17:55:12.924Z,92.30
2019-04-14T17:57:52.246Z,92.30
2019-04-14T18:00:25.122Z,92.60
2019-04-14T18:02:55.472Z,92.30
2019-04-14T18:05:31.361Z,92.30
2019-04-14T18:08:01.566Z,93.00
2019-04-14T18:10:31.880Z,92.70
2019-04-14T18:13:11.625Z,92.70
2019-04-14T18:15:50.651Z,92.80
2019-04-14T18:18:39.013Z,92.80
2019-04-14T18:21:09.620Z,92.70
2019-04-14T18:23:38.433Z,93.00
2019-04-14T18:26:07.885Z,93.20
2019-04-14T18:28:38.559Z,92.70
2019-04-14T18:31:08.837Z,93.30
2019-04-14T18:33:39.993Z,92.90
2019-04-14T18:36:10.182Z,93.60
2019-04-14T18:38:40.543Z,93.50
2019-04-14T18:41:13.827Z,93.60
2019-04-14T18:43:50.278Z,93.80
2019-04-14T18:46:20.451Z,93.90
2019-04-14T18:48:50.619Z,93.50
2019-04-14T18:51:20.824Z,94.20
2019-04-14T18:53:57.072Z,94.30
2019-04-14T18:56:29.871Z,94.50
2019-04-14T18:59:16.273Z,94.30
2019-04-14T19:01:52.334Z,94.60
2019-04-14T19:04:20.869Z,94.60
2019-04-14T19:06:49.487Z,94.80
2019-04-14T19:09:18.395Z,94.70
2019-04-14T19:12:04.601Z,95.00
2019-04-14T19:14:35.456Z,94.80
2019-04-14T19:17:08.440Z,94.90
2019-04-14T19:19:38.695Z,94.70
2019-04-14T19:22:07.230Z,94.80
2019-04-14T19:24:35.828Z,95.30
2019-04-14T19:27:04.489Z,95.40
2019-04-14T19:29:33.409Z,95.90
2019-04-14T19:32:01.965Z,95.70
2019-04-14T19:34:30.527Z,96.10
2019-04-14T19:36:59.585Z,96.20
2019-04-14T19:39:28.225Z,96.40
2019-04-14T19:41:56.802Z,95.80
2019-04-14T19:44:25.330Z,95.80
2019-04-14T19:46:53.874Z,96.20
2019-04-14T19:49:22.927Z,96.30
2019-04-14T19:51:51.564Z,95.90
2019-04-14T19:54:20.517Z,96.40
2019-04-14T19:56:49.035Z,96.20
2019-04-14T19:59:17.587Z,96.40
2019-04-14T20:01:46.170Z,96.30
2019-04-14T20:04:14.845Z,96.70
2019-04-14T20:06:43.400Z,97.00
2019-04-14T20:09:11.916Z,97.20
2019-04-14T20:11:40.814Z,97.60
2019-04-14T20:14:09.420Z,97.60
2019-04-14T20:16:42.683Z,97.60
2019-04-14T20:19:29.133Z,97.50
2019-04-14T20:22:02.191Z,97.40
2019-04-14T20:24:32.524Z,97.90
2019-04-14T20:27:19.083Z,97.90
2019-04-14T20:29:49.354Z,98.20
2019-04-14T20:32:22.061Z,98.30
2019-04-14T20:34:51.540Z,98.00
2019-04-14T20:37:20.066Z,98.20
2019-04-14T20:39:49.023Z,98.00
2019-04-14T20:42:17.999Z,98.20
2019-04-14T20:44:46.979Z,98.40
2019-04-14T20:47:16.018Z,98.20
2019-04-14T20:49:44.659Z,98.70
2019-04-14T20:52:13.548Z,98.30
2019-04-14T20:54:42.101Z,98.50
2019-04-14T20:57:10.979Z,98.80
2019-04-14T20:59:39.565Z,98.80
2019-04-14T21:02:21.670Z,98.90
2019-04-14T21:05:07.150Z,98.70
2019-04-14T21:07:40.454Z,98.60
2019-04-14T21:10:13.355Z,98.80
2019-04-14T21:12:55.158Z,98.50
2019-04-14T21:15:30.915Z,98.70
2019-04-14T21:18:16.567Z,98.90
2019-04-14T21:20:52.739Z,99.10
2019-04-14T21:23:25.574Z,99.20
2019-04-14T21:26:00.768Z,98.90
2019-04-14T21:28:31.074Z,99.30
2019-04-14T21:31:09.927Z,99.20
2019-04-14T21:33:56.107Z,99.70
2019-04-14T21:36:29.100Z,99.40
2019-04-14T21:39:02.414Z,99.60
2019-04-14T21:41:32.702Z,99.40
2019-04-14T21:44:01.284Z,99.90
2019-04-14T21:46:29.886Z,99.80
2019-04-14T21:48:58.383Z,99.90
2019-04-14T21:51:28.659Z,99.50
2019-04-14T21:53:57.139Z,99.80
2019-04-14T21:56:27.374Z,99.90
2019-04-14T21:59:13.295Z,99.90
2019-04-14T22:01:58.886Z,99.90
2019-04-14T22:04:29.374Z,99.90
2019-04-14T22:06:59.512Z,99.90
2019-04-14T22:09:29.613Z,99.90
2019-04-14T22:11:59.694Z,99.90
2019-04-14T22:14:28.179Z,99.90
2019-04-14T22:16:56.731Z,99.90
2019-04-14T22:19:25.497Z,99.90
2019-04-14T22:21:54.038Z,99.90
2019-04-14T22:24:22.516Z,99.90
2019-04-14T22:26:51.065Z,99.90
2019-04-14T22:29:19.979Z,99.90
2019-04-14T22:31:48.993Z,99.90
2019-04-14T22:34:17.551Z,99.90
2019-04-14T22:36:46.055Z,99.90
2019-04-14T22:39:16.692Z,99.90
2019-04-14T22:41:45.243Z,99.90
2019-04-14T22:44:13.950Z,99.90
2019-04-14T22:46:42.534Z,99.90
2019-04-14T22:49:11.086Z,99.90
2019-04-14T22:51:39.623Z,99.90
2019-04-14T22:54:08.155Z,99.90
2019-04-14T22:56:39.512Z,99.90
2019-04-14T22:59:06.997Z,99.90
2019-04-14T23:01:37.198Z,99.90
2019-04-14T23:04:07.490Z,99.90
2019-04-14T23:06:53.958Z,99.90
2019-04-14T23:09:30.094Z,99.90
2019-04-14T23:12:03.284Z,99.90
2019-04-14T23:14:42.283Z,99.90
2019-04-14T23:17:12.521Z,99.90
2019-04-14T23:19:43.031Z,99.90
2019-04-14T23:22:19.111Z,99.90
2019-04-14T23:24:51.680Z,99.90
2019-04-14T23:27:20.248Z,99.90
2019-04-14T23:29:48.761Z,99.90
2019-04-14T23:32:17.414Z,99.90
2019-04-14T23:34:45.972Z,99.90
2019-04-14T23:37:14.567Z,99.90
2019-04-14T23:39:43.442Z,99.90
2019-04-14T23:42:11.991Z,99.90
2019-04-14T23:44:40.486Z,99.90
2019-04-14T23:47:09.166Z,99.90
2019-04-14T23:49:38.102Z,99.90
2019-04-14T23:52:06.756Z,99.90
2019-04-14T23:54:35.306Z,99.90
2019-04-14T23:57:05.889Z,99.90
2019-04-14T23:59:34.277Z,99.90
